Terminal Aerodrome Forecast
Issued by NWS Louisville, KY

Home | Current Version | Previous Version | Text Only | Print | Product List | Glossary On
Versions: 1 2 3 4 5 6 7 8 9 10 11 12 13
660
FTUS43 KLMK 220523
TAFSDF
TAF
KSDF 220523Z 2206/2312 36014G20KT P6SM BKN028 BKN100
     FM220630 36013KT P6SM FEW250
     FM221500 01008KT P6SM SKC
     FM222000 36007KT P6SM SCT028
     FM230200 VRB03KT P6SM SKC=

USA.gov is the U.S. government's official web portal to all federal, state and local government web resources and services.